Time;durP1;ratioP1;P1;durP2;ratioP2;P2;SDS_P1;SDS_P2;PMS_P1;PMS_P2;Temp;Humidity;BMP_temperature;BMP_pressure;BME280_temperature;BME280_humidity;BME280_pressure;Samples;Min_cycle;Max_cycle;Signal;HPM_P1;HPM_P2
2023/04/14 05:00:47;;;;;;;;;;;18.30;53.20;;;;;;6173840;28;19923;-74
2023/04/14 05:43:46;;;;;;;;;;;18.30;53.40;;;;;;6147303;28;19914;-70
2023/04/14 05:51:15;;;;;;;;;;;;;;;;;;;;;
2023/04/14 06:01:32;;;;;;;;;;;18.40;53.00;;;;;;6139136;28;19923;-69
2023/04/14 06:16:24;;;;;;;;;;;18.40;53.10;;;;;;6149262;28;20021;-71
2023/04/14 06:19:38;;;;;;;;;;;18.40;53.20;;;;;;6149349;29;19914;-69
2023/04/14 06:22:41;;;;;;;;;;;18.30;53.10;;;;;;6149760;29;19982;-69
2023/04/14 06:25:44;;;;;;;;;;;18.40;53.10;;;;;;6132118;29;19972;-69
2023/04/14 06:28:46;;;;;;;;;;;18.30;53.00;;;;;;6149699;29;19965;-69
2023/04/14 06:31:50;;;;;;;;;;;18.30;53.20;;;;;;6132242;29;20546;-69
2023/04/14 06:34:53;;;;;;;;;;;18.40;53.30;;;;;;6149190;28;19921;-69
2023/04/14 06:37:55;;;;;;;;;;;18.30;53.30;;;;;;6132633;29;19915;-69
2023/04/14 06:40:57;;;;;;;;;;;18.30;53.10;;;;;;6149147;29;19962;-69
2023/04/14 06:44:00;;;;;;;;;;;18.30;53.10;;;;;;6149353;28;19937;-70
2023/04/14 06:47:01;;;;;;;;;;;18.40;53.30;;;;;;6149378;29;19997;-69
2023/04/14 06:50:03;;;;;;;;;;;18.30;53.00;;;;;;6148538;28;20010;-69
2023/04/14 06:53:07;;;;;;;;;;;18.30;53.20;;;;;;6154310;29;19919;-69
2023/04/14 06:56:15;;;;;;;;;;;18.30;53.10;;;;;;6154352;28;19914;-69
2023/04/14 06:59:20;;;;;;;;;;;18.40;53.20;;;;;;6154630;29;20001;-69
2023/04/14 07:02:21;;;;;;;;;;;18.40;53.20;;;;;;6141878;28;20381;-69
2023/04/14 07:05:25;;;;;;;;;;;18.40;53.20;;;;;;6130427;29;19919;-69
2023/04/14 07:08:31;;;;;;;;;;;18.30;53.30;;;;;;6129764;29;19923;-69
2023/04/14 07:11:33;;;;;;;;;;;18.30;53.30;;;;;;6130312;29;19923;-69
2023/04/14 07:14:36;;;;;;;;;;;18.40;53.30;;;;;;6129724;29;19970;-69
2023/04/14 07:17:39;;;;;;;;;;;18.30;53.30;;;;;;6130079;29;20076;-69
2023/04/14 07:20:40;;;;;;;;;;;18.30;53.10;;;;;;6129769;29;19918;-69
2023/04/14 07:23:42;;;;;;;;;;;18.30;53.30;;;;;;6130029;29;19915;-69
2023/04/14 07:26:43;;;;;;;;;;;18.40;53.40;;;;;;6129732;29;19915;-69
2023/04/14 07:29:44;;;;;;;;;;;18.40;53.40;;;;;;6129912;29;19989;-69
2023/04/14 07:32:47;;;;;;;;;;;18.30;53.10;;;;;;6112628;29;19919;-71
2023/04/14 07:35:50;;;;;;;;;;;18.30;53.30;;;;;;6100083;29;20010;-71
2023/04/14 07:38:51;;;;;;;;;;;18.30;53.30;;;;;;6106203;29;19946;-71
2023/04/14 07:41:53;;;;;;;;;;;18.30;53.40;;;;;;6088781;29;20396;-69
2023/04/14 07:44:55;;;;;;;;;;;18.40;53.40;;;;;;6105923;29;20295;-68
2023/04/14 07:47:57;;;;;;;;;;;18.40;53.40;;;;;;6104356;29;19922;-69
2023/04/14 07:50:59;;;;;;;;;;;18.30;53.30;;;;;;6109880;29;19926;-68
2023/04/14 07:54:06;;;;;;;;;;;18.40;53.30;;;;;;6111731;29;20385;-68
2023/04/14 07:57:09;;;;;;;;;;;18.30;53.30;;;;;;6129584;29;19966;-68
2023/04/14 08:00:11;;;;;;;;;;;18.30;53.20;;;;;;6112172;29;19938;-68
2023/04/14 08:03:15;;;;;;;;;;;18.40;53.30;;;;;;6145527;28;19922;-68
2023/04/14 08:06:18;;;;;;;;;;;18.30;53.20;;;;;;6132240;29;19922;-68
2023/04/14 08:09:20;;;;;;;;;;;18.40;53.30;;;;;;6135420;29;19915;-68
2023/04/14 08:12:23;;;;;;;;;;;18.40;53.30;;;;;;6152331;29;19966;-69
2023/04/14 08:15:24;;;;;;;;;;;18.30;53.20;;;;;;6134611;29;19915;-69
2023/04/14 08:18:26;;;;;;;;;;;18.30;53.30;;;;;;6135305;29;19914;-69
2023/04/14 08:21:29;;;;;;;;;;;18.30;53.30;;;;;;6152118;29;19918;-69
2023/04/14 08:24:31;;;;;;;;;;;18.30;53.30;;;;;;6152261;28;19914;-69
2023/04/14 08:27:33;;;;;;;;;;;18.30;53.20;;;;;;6152115;29;19921;-70
2023/04/14 08:30:35;;;;;;;;;;;18.30;53.20;;;;;;6151879;29;19928;-71
2023/04/14 08:33:38;;;;;;;;;;;18.30;53.30;;;;;;6134107;29;19926;-70
2023/04/14 08:36:40;;;;;;;;;;;18.30;53.40;;;;;;6150713;29;19915;-71
2023/04/14 08:39:42;;;;;;;;;;;18.40;53.40;;;;;;6151588;29;19954;-70
2023/04/14 08:42:45;;;;;;;;;;;18.30;53.30;;;;;;6151972;29;19915;-70
2023/04/14 08:45:48;;;;;;;;;;;18.40;53.40;;;;;;6151106;29;19921;-70
2023/04/14 08:48:52;;;;;;;;;;;18.30;53.40;;;;;;6151875;29;19925;-69
2023/04/14 08:51:54;;;;;;;;;;;18.30;53.20;;;;;;6150317;29;19922;-69
2023/04/14 08:54:56;;;;;;;;;;;18.30;53.30;;;;;;6150273;29;20287;-69
2023/04/14 08:58:00;;;;;;;;;;;18.30;53.40;;;;;;6151257;29;19919;-69
2023/04/14 09:01:02;;;;;;;;;;;18.30;53.20;;;;;;6151207;29;20326;-69
2023/04/14 09:04:04;;;;;;;;;;;18.30;53.40;;;;;;6127316;29;20031;-68
2023/04/14 09:07:06;;;;;;;;;;;18.30;53.30;;;;;;6127037;29;20029;-69
2023/04/14 09:10:09;;;;;;;;;;;18.30;53.30;;;;;;6110534;29;19915;-69
2023/04/14 09:13:11;;;;;;;;;;;18.40;53.30;;;;;;6127211;29;19922;-70
2023/04/14 09:16:13;;;;;;;;;;;18.30;53.30;;;;;;6125096;29;19982;-69
2023/04/14 09:19:15;;;;;;;;;;;18.30;53.30;;;;;;6118666;29;19914;-69
2023/04/14 09:22:16;;;;;;;;;;;18.40;53.30;;;;;;6126502;29;19954;-71
2023/04/14 09:25:17;;;;;;;;;;;18.30;53.40;;;;;;6126136;29;19919;-71
2023/04/14 09:28:18;;;;;;;;;;;18.30;53.30;;;;;;6109961;29;19961;-71
2023/04/14 09:31:18;;;;;;;;;;;18.40;53.40;;;;;;6124775;29;20373;-71
2023/04/14 09:45:40;;;;;;;;;;;18.40;53.40;;;;;;6058407;29;20048;-71
2023/04/14 09:48:54;;;;;;;;;;;18.40;53.40;;;;;;6108938;29;19934;-71
2023/04/14 09:52:01;;;;;;;;;;;18.40;53.40;;;;;;6125334;29;19930;-71
2023/04/14 09:55:03;;;;;;;;;;;18.40;53.40;;;;;;6108596;29;19919;-71
2023/04/14 09:58:03;;;;;;;;;;;18.40;53.40;;;;;;6108444;29;20027;-71
2023/04/14 10:01:04;;;;;;;;;;;18.40;53.50;;;;;;6125009;29;19929;-71
2023/04/14 10:04:19;;;;;;;;;;;18.40;53.40;;;;;;6142445;29;20441;-71
2023/04/14 10:07:20;;;;;;;;;;;18.40;53.50;;;;;;6149943;28;19925;-72
2023/04/14 10:10:21;;;;;;;;;;;18.40;53.30;;;;;;6146445;29;20301;-71
2023/04/14 10:13:22;;;;;;;;;;;18.40;53.50;;;;;;6143400;29;19958;-71
2023/04/14 10:16:23;;;;;;;;;;;18.40;53.50;;;;;;6148469;28;19921;-71
2023/04/14 10:19:24;;;;;;;;;;;18.40;53.50;;;;;;6163745;28;19924;-71
2023/04/14 10:22:26;;;;;;;;;;;18.40;53.50;;;;;;6147327;29;19914;-70
2023/04/14 10:25:28;;;;;;;;;;;18.40;53.60;;;;;;6147023;28;19919;-69
2023/04/14 10:28:29;;;;;;;;;;;18.40;53.50;;;;;;6148698;29;19937;-69
2023/04/14 10:31:41;;;;;;;;;;;18.40;53.50;;;;;;6148229;29;20384;-69
2023/04/14 10:35:08;;;;;;;;;;;18.40;53.60;;;;;;6145332;29;19930;-71
2023/04/14 10:38:08;;;;;;;;;;;18.40;53.60;;;;;;6142500;29;19928;-70
2023/04/14 10:41:09;;;;;;;;;;;18.40;53.60;;;;;;6146617;29;19921;-71
2023/04/14 10:44:23;;;;;;;;;;;18.40;53.60;;;;;;6148631;29;20023;-71
2023/04/14 10:47:24;;;;;;;;;;;18.40;53.70;;;;;;6148571;29;19953;-70
2023/04/14 10:50:25;;;;;;;;;;;18.40;53.70;;;;;;6122556;29;20349;-69
2023/04/14 10:53:25;;;;;;;;;;;18.40;53.70;;;;;;6122694;29;19926;-70
2023/04/14 10:56:28;;;;;;;;;;;18.40;53.70;;;;;;6131075;29;19914;-69
2023/04/14 10:59:28;;;;;;;;;;;18.40;53.80;;;;;;6134243;29;19918;-69
2023/04/14 11:02:29;;;;;;;;;;;18.40;53.80;;;;;;6124860;29;19930;-69
2023/04/14 11:05:33;;;;;;;;;;;18.40;53.70;;;;;;6133679;29;20469;-71
2023/04/14 11:08:34;;;;;;;;;;;18.40;53.70;;;;;;6128353;29;19918;-71
2023/04/14 11:11:40;;;;;;;;;;;18.40;53.80;;;;;;6134982;29;19927;-71
2023/04/14 11:14:42;;;;;;;;;;;18.40;53.70;;;;;;6138270;29;20400;-72
2023/04/14 11:17:44;;;;;;;;;;;18.40;53.80;;;;;;6149081;29;19914;-72
2023/04/14 11:20:45;;;;;;;;;;;18.40;53.80;;;;;;6147343;29;19937;-70
2023/04/14 11:23:46;;;;;;;;;;;18.40;53.70;;;;;;6147156;29;20417;-69
2023/04/14 11:26:47;;;;;;;;;;;18.40;53.80;;;;;;6146758;29;19945;-69
2023/04/14 11:29:48;;;;;;;;;;;18.40;53.80;;;;;;6142477;29;19925;-69
2023/04/14 11:32:53;;;;;;;;;;;18.40;53.80;;;;;;6130321;29;20009;-69
2023/04/14 11:35:54;;;;;;;;;;;18.40;53.80;;;;;;6145725;29;19918;-71
2023/04/14 11:38:55;;;;;;;;;;;18.40;53.80;;;;;;6150897;28;20328;-71
2023/04/14 11:41:59;;;;;;;;;;;18.40;53.80;;;;;;6143652;29;19919;-71
2023/04/14 11:45:01;;;;;;;;;;;18.40;53.80;;;;;;6134906;29;19974;-77
2023/04/14 11:48:03;;;;;;;;;;;18.40;53.80;;;;;;6149751;29;20459;-70
2023/04/14 11:51:04;;;;;;;;;;;18.40;53.80;;;;;;6126847;29;19915;-70
2023/04/14 11:54:05;;;;;;;;;;;18.40;53.80;;;;;;6125611;29;20005;-70
2023/04/14 11:57:09;;;;;;;;;;;18.40;53.90;;;;;;6127685;29;19925;-71
2023/04/14 12:00:11;;;;;;;;;;;18.40;53.80;;;;;;6136338;29;19915;-69
2023/04/14 12:03:19;;;;;;;;;;;18.40;53.80;;;;;;6121062;29;19946;-71
2023/04/14 12:06:19;;;;;;;;;;;18.40;53.80;;;;;;6124348;29;19965;-69
2023/04/14 12:09:20;;;;;;;;;;;18.40;53.90;;;;;;6150704;29;20039;-71
2023/04/14 12:12:20;;;;;;;;;;;18.40;53.80;;;;;;6150641;29;19929;-72
2023/04/14 12:15:21;;;;;;;;;;;18.40;53.90;;;;;;6133069;29;19934;-69
2023/04/14 12:18:22;;;;;;;;;;;18.40;53.90;;;;;;6149153;29;19942;-69
2023/04/14 12:21:23;;;;;;;;;;;18.40;53.80;;;;;;6150211;29;20378;-70
2023/04/14 12:24:31;;;;;;;;;;;18.40;53.90;;;;;;6149261;29;19918;-69
2023/04/14 12:27:32;;;;;;;;;;;18.40;53.90;;;;;;6150380;29;19914;-69
2023/04/14 12:30:33;;;;;;;;;;;18.40;53.90;;;;;;6145136;29;19918;-70
2023/04/14 12:33:34;;;;;;;;;;;18.40;53.90;;;;;;6148618;29;20445;-69
2023/04/14 12:36:38;;;;;;;;;;;18.40;53.90;;;;;;6150307;29;19915;-69
2023/04/14 12:39:49;;;;;;;;;;;18.40;53.90;;;;;;6131658;29;19915;-70
2023/04/14 12:42:51;;;;;;;;;;;18.40;53.90;;;;;;6150442;29;20297;-71
2023/04/14 12:45:52;;;;;;;;;;;18.40;53.90;;;;;;6149397;28;19914;-71
2023/04/14 12:48:52;;;;;;;;;;;18.40;53.90;;;;;;6149617;28;19945;-71
2023/04/14 12:51:53;;;;;;;;;;;18.40;53.90;;;;;;6161840;28;19922;-69
2023/04/14 12:54:54;;;;;;;;;;;18.40;53.90;;;;;;6148459;29;19969;-72
2023/04/14 12:57:55;;;;;;;;;;;18.40;53.90;;;;;;6150089;29;20009;-71
2023/04/14 13:00:55;;;;;;;;;;;18.40;53.90;;;;;;6134892;29;19914;-70
2023/04/14 13:03:56;;;;;;;;;;;18.40;53.90;;;;;;6145381;28;19933;-72
2023/04/14 13:06:57;;;;;;;;;;;18.40;53.90;;;;;;6149942;29;19915;-72
2023/04/14 13:09:57;;;;;;;;;;;18.40;53.90;;;;;;6148465;29;20293;-71
2023/04/14 13:12:58;;;;;;;;;;;18.40;53.90;;;;;;6149421;29;19924;-72
2023/04/14 13:15:59;;;;;;;;;;;18.40;54.00;;;;;;6149045;28;19914;-69
2023/04/14 13:18:59;;;;;;;;;;;18.40;53.90;;;;;;6147516;29;19915;-69
2023/04/14 13:22:00;;;;;;;;;;;18.40;53.90;;;;;;6149391;29;19919;-69
2023/04/14 13:25:01;;;;;;;;;;;18.40;53.90;;;;;;6131401;29;19918;-70
2023/04/14 13:28:01;;;;;;;;;;;18.40;53.90;;;;;;6149217;29;19915;-69
2023/04/14 13:31:02;;;;;;;;;;;18.40;54.00;;;;;;6148593;29;20001;-71
2023/04/14 13:34:03;;;;;;;;;;;18.40;53.90;;;;;;6149096;28;19918;-71
2023/04/14 13:37:04;;;;;;;;;;;18.40;54.00;;;;;;6148930;29;20400;-71
2023/04/14 13:40:05;;;;;;;;;;;18.40;54.00;;;;;;6148477;29;19921;-71
2023/04/14 13:43:07;;;;;;;;;;;18.40;54.00;;;;;;6149086;29;19988;-71
2023/04/14 13:46:07;;;;;;;;;;;18.40;54.00;;;;;;6149202;29;20337;-71
2023/04/14 13:49:08;;;;;;;;;;;18.40;54.00;;;;;;6148469;29;19926;-69
2023/04/14 13:52:08;;;;;;;;;;;18.40;54.00;;;;;;6136162;29;19958;-69
2023/04/14 13:55:09;;;;;;;;;;;18.40;54.10;;;;;;6147040;29;20005;-71
2023/04/14 13:58:10;;;;;;;;;;;18.40;54.00;;;;;;6147296;29;19914;-71
2023/04/14 14:01:10;;;;;;;;;;;18.40;54.00;;;;;;6130079;28;19921;-71
2023/04/14 14:04:11;;;;;;;;;;;18.40;54.10;;;;;;6126536;29;19923;-69
2023/04/14 14:07:12;;;;;;;;;;;18.40;54.00;;;;;;6141894;29;19921;-68
2023/04/14 14:10:12;;;;;;;;;;;18.40;54.10;;;;;;6147811;29;19915;-69
2023/04/14 14:13:13;;;;;;;;;;;18.40;54.10;;;;;;6146879;29;19919;-69
2023/04/14 14:16:13;;;;;;;;;;;18.40;54.00;;;;;;6148462;28;19914;-69
2023/04/14 14:19:15;;;;;;;;;;;18.40;54.10;;;;;;6147615;29;19920;-69
2023/04/14 14:22:16;;;;;;;;;;;18.40;54.10;;;;;;6147845;29;19915;-69
2023/04/14 14:25:17;;;;;;;;;;;18.40;54.10;;;;;;6146166;29;20389;-68
2023/04/14 14:28:18;;;;;;;;;;;18.40;54.10;;;;;;6133510;29;20009;-68
2023/04/14 14:31:19;;;;;;;;;;;18.40;54.10;;;;;;6125902;29;19950;-69
2023/04/14 14:34:19;;;;;;;;;;;18.40;54.10;;;;;;6130385;28;19929;-69
2023/04/14 14:37:21;;;;;;;;;;;18.40;54.10;;;;;;6157041;28;19915;-64
2023/04/14 14:40:21;;;;;;;;;;;18.40;54.10;;;;;;6147868;29;20289;-69
2023/04/14 14:43:22;;;;;;;;;;;18.40;54.10;;;;;;6141343;29;19914;-69
2023/04/14 14:46:22;;;;;;;;;;;18.40;54.20;;;;;;6130313;29;19973;-69
2023/04/14 14:49:23;;;;;;;;;;;18.40;54.10;;;;;;6147457;29;19921;-69
2023/04/14 14:52:24;;;;;;;;;;;18.40;54.10;;;;;;6135301;29;20389;-69
2023/04/14 14:55:24;;;;;;;;;;;18.40;54.10;;;;;;6123649;29;20005;-69
2023/04/14 14:58:25;;;;;;;;;;;18.40;54.10;;;;;;6142835;29;20046;-69
2023/04/14 15:01:26;;;;;;;;;;;18.40;54.10;;;;;;6144951;29;19927;-69
2023/04/14 15:04:26;;;;;;;;;;;18.40;54.10;;;;;;6130241;28;19918;-69
2023/04/14 15:07:27;;;;;;;;;;;18.40;54.10;;;;;;6146767;29;19919;-69
2023/04/14 15:10:27;;;;;;;;;;;18.40;54.10;;;;;;6147387;29;19953;-68
2023/04/14 15:13:28;;;;;;;;;;;18.40;54.10;;;;;;6132398;29;20405;-69
2023/04/14 15:16:30;;;;;;;;;;;18.40;54.10;;;;;;6150859;29;20456;-70
2023/04/14 15:19:30;;;;;;;;;;;18.40;54.10;;;;;;6150539;29;19914;-70
2023/04/14 15:22:31;;;;;;;;;;;18.40;54.10;;;;;;6149436;29;20381;-69
2023/04/14 15:25:31;;;;;;;;;;;18.40;54.10;;;;;;6134612;29;19919;-69
2023/04/14 15:28:32;;;;;;;;;;;18.40;54.10;;;;;;6134344;29;20282;-70
2023/04/14 15:31:33;;;;;;;;;;;18.40;54.10;;;;;;6151376;29;19938;-69
2023/04/14 15:34:33;;;;;;;;;;;18.40;54.10;;;;;;6151622;28;19922;-72
2023/04/14 15:37:34;;;;;;;;;;;18.40;54.10;;;;;;6151839;29;19915;-72
2023/04/14 15:40:36;;;;;;;;;;;18.40;54.10;;;;;;6134955;29;20009;-69
2023/04/14 15:43:38;;;;;;;;;;;18.40;54.10;;;;;;6135194;29;19915;-72
2023/04/14 15:46:39;;;;;;;;;;;18.50;54.10;;;;;;6148575;29;19919;-72
2023/04/14 15:49:39;;;;;;;;;;;18.40;54.20;;;;;;6148745;29;20279;-72
2023/04/14 15:52:40;;;;;;;;;;;18.40;54.20;;;;;;6134961;29;19914;-71
2023/04/14 15:55:41;;;;;;;;;;;18.40;54.20;;;;;;6152364;29;19946;-70
2023/04/14 15:58:42;;;;;;;;;;;18.40;54.10;;;;;;6151451;29;20013;-70
2023/04/14 16:01:43;;;;;;;;;;;18.40;54.10;;;;;;6134658;29;20341;-71
2023/04/14 16:04:44;;;;;;;;;;;18.40;54.20;;;;;;6151372;28;19910;-71
2023/04/14 16:07:45;;;;;;;;;;;18.40;54.20;;;;;;6134369;29;19915;-71
2023/04/14 16:10:45;;;;;;;;;;;18.40;54.20;;;;;;6151035;29;19965;-69
2023/04/14 16:13:46;;;;;;;;;;;18.40;54.30;;;;;;6150087;29;19918;-70
2023/04/14 16:16:47;;;;;;;;;;;18.40;54.30;;;;;;6149841;29;19911;-72
2023/04/14 16:19:47;;;;;;;;;;;18.40;54.30;;;;;;6147461;28;19925;-72
2023/04/14 16:22:48;;;;;;;;;;;18.40;54.20;;;;;;6131676;28;19914;-71
2023/04/14 16:25:48;;;;;;;;;;;18.40;54.30;;;;;;6131467;29;19919;-70
2023/04/14 16:28:49;;;;;;;;;;;18.40;54.20;;;;;;6131109;29;19918;-70
2023/04/14 16:31:50;;;;;;;;;;;18.40;54.30;;;;;;6149164;29;19922;-70
2023/04/14 16:34:51;;;;;;;;;;;18.40;54.30;;;;;;6130355;29;20317;-71
2023/04/14 16:37:52;;;;;;;;;;;18.40;54.30;;;;;;6132202;29;19910;-67
2023/04/14 16:40:54;;;;;;;;;;;18.40;54.40;;;;;;6148981;29;19993;-67
2023/04/14 16:43:54;;;;;;;;;;;18.40;54.30;;;;;;6149618;29;20494;-67
2023/04/14 16:46:55;;;;;;;;;;;18.40;54.30;;;;;;6149569;29;19907;-67
2023/04/14 16:49:55;;;;;;;;;;;18.40;54.20;;;;;;6148102;29;19911;-66
2023/04/14 16:52:56;;;;;;;;;;;18.40;54.00;;;;;;6162942;28;20001;-66
2023/04/14 16:56:07;;;;;;;;;;;18.40;53.90;;;;;;6148178;29;20547;-65
2023/04/14 16:59:08;;;;;;;;;;;18.40;53.70;;;;;;6146465;29;20009;-68
2023/04/14 17:02:09;;;;;;;;;;;18.30;53.20;;;;;;6137749;29;20551;-68
2023/04/14 17:05:11;;;;;;;;;;;18.30;52.90;;;;;;6124661;29;19918;-68
2023/04/14 17:08:12;;;;;;;;;;;18.30;53.30;;;;;;6124290;29;19910;-72
2023/04/14 17:11:13;;;;;;;;;;;18.40;53.30;;;;;;6117847;29;20349;-73
2023/04/14 17:14:15;;;;;;;;;;;18.30;53.10;;;;;;6129809;29;19915;-72
2023/04/14 17:17:16;;;;;;;;;;;18.30;52.80;;;;;;6106566;29;19914;-72
2023/04/14 17:20:17;;;;;;;;;;;18.30;53.10;;;;;;6105478;29;19969;-70
2023/04/14 17:23:20;;;;;;;;;;;18.40;53.30;;;;;;6099379;29;19927;-71
2023/04/14 17:26:24;;;;;;;;;;;18.40;53.40;;;;;;6117714;29;19957;-72
2023/04/14 17:29:24;;;;;;;;;;;18.40;53.40;;;;;;6121047;29;19911;-73
2023/04/14 17:32:26;;;;;;;;;;;18.40;53.40;;;;;;6120908;29;20465;-72
2023/04/14 17:35:27;;;;;;;;;;;18.40;53.50;;;;;;6117365;29;19911;-73
2023/04/14 17:38:27;;;;;;;;;;;18.40;53.50;;;;;;6123045;29;20253;-70
2023/04/14 17:41:28;;;;;;;;;;;18.40;53.70;;;;;;6103692;29;19958;-70
2023/04/14 17:44:33;;;;;;;;;;;18.40;53.80;;;;;;6084832;29;19934;-69
2023/04/14 17:47:36;;;;;;;;;;;18.40;53.80;;;;;;6121352;29;19917;-73
2023/04/14 17:50:37;;;;;;;;;;;18.40;53.80;;;;;;6105480;29;19922;-70
2023/04/14 17:53:38;;;;;;;;;;;18.40;53.90;;;;;;6121992;29;19923;-70
2023/04/14 17:56:39;;;;;;;;;;;18.40;53.90;;;;;;6116238;29;19914;-70
2023/04/14 17:59:40;;;;;;;;;;;18.40;53.90;;;;;;6147225;29;19915;-71
2023/04/14 18:02:40;;;;;;;;;;;18.40;53.90;;;;;;6121991;29;19923;-70
2023/04/14 18:05:41;;;;;;;;;;;18.40;53.90;;;;;;6122550;29;19911;-69
2023/04/14 18:08:42;;;;;;;;;;;18.40;54.00;;;;;;6123985;29;19946;-68
2023/04/14 18:11:42;;;;;;;;;;;18.40;54.00;;;;;;6122410;29;19915;-68
2023/04/14 18:14:43;;;;;;;;;;;18.40;54.00;;;;;;6123763;29;19911;-69
2023/04/14 18:17:44;;;;;;;;;;;18.40;54.00;;;;;;6122710;29;19918;-69
2023/04/14 18:20:47;;;;;;;;;;;18.40;54.00;;;;;;6122516;29;19950;-69
2023/04/14 18:23:48;;;;;;;;;;;18.40;54.10;;;;;;6123833;29;19915;-69
2023/04/14 18:26:50;;;;;;;;;;;18.40;54.00;;;;;;6123500;29;20386;-69
2023/04/14 18:29:52;;;;;;;;;;;18.40;54.00;;;;;;6122671;29;19994;-69
2023/04/14 18:32:53;;;;;;;;;;;18.40;54.00;;;;;;6121943;29;19914;-69
2023/04/14 18:35:55;;;;;;;;;;;18.40;53.90;;;;;;6122997;29;20404;-68
2023/04/14 18:38:56;;;;;;;;;;;18.40;54.00;;;;;;6122561;29;19910;-69
2023/04/14 18:41:56;;;;;;;;;;;18.40;53.90;;;;;;6121986;29;20302;-68
2023/04/14 18:44:57;;;;;;;;;;;18.40;53.90;;;;;;6123305;29;19922;-68
2023/04/14 18:47:58;;;;;;;;;;;18.40;54.00;;;;;;6126508;29;19915;-68
2023/04/14 18:51:00;;;;;;;;;;;18.40;54.00;;;;;;6128742;29;19925;-71
2023/04/14 18:54:01;;;;;;;;;;;18.40;53.90;;;;;;6110710;29;19915;-68
2023/04/14 18:57:02;;;;;;;;;;;18.40;54.00;;;;;;6128132;29;19917;-68
2023/04/14 19:00:05;;;;;;;;;;;18.40;54.00;;;;;;6128056;29;20526;-68
2023/04/14 19:03:07;;;;;;;;;;;18.40;54.70;;;;;;6143098;29;19966;-68
2023/04/14 19:06:07;;;;;;;;;;;18.40;53.90;;;;;;6151417;28;19958;-69
2023/04/14 19:09:08;;;;;;;;;;;18.40;54.10;;;;;;6151639;29;19925;-69
2023/04/14 19:12:08;;;;;;;;;;;18.40;53.90;;;;;;6150235;29;19977;-69
2023/04/14 19:15:09;;;;;;;;;;;18.40;54.00;;;;;;6151372;28;19915;-69
2023/04/14 19:18:10;;;;;;;;;;;18.40;54.00;;;;;;6151342;29;19911;-69
2023/04/14 19:21:11;;;;;;;;;;;18.40;54.60;;;;;;6134343;29;20723;-69
2023/04/14 19:24:12;;;;;;;;;;;18.40;53.90;;;;;;6150853;29;20510;-68
2023/04/14 19:27:12;;;;;;;;;;;18.40;53.90;;;;;;6149781;29;19918;-68
2023/04/14 19:30:13;;;;;;;;;;;18.40;53.90;;;;;;6133587;29;19910;-68
2023/04/14 19:33:14;;;;;;;;;;;18.40;53.90;;;;;;6151078;29;19921;-69
2023/04/14 19:36:15;;;;;;;;;;;18.40;54.00;;;;;;6133131;29;20379;-68
2023/04/14 19:39:18;;;;;;;;;;;18.40;54.00;;;;;;6150722;29;19993;-68
2023/04/14 19:42:18;;;;;;;;;;;18.40;53.90;;;;;;6133571;29;20124;-68
2023/04/14 19:45:19;;;;;;;;;;;18.40;53.90;;;;;;6150780;29;19918;-69
2023/04/14 19:48:20;;;;;;;;;;;18.40;54.00;;;;;;6150385;29;19914;-68
2023/04/14 19:51:20;;;;;;;;;;;18.40;53.90;;;;;;6151087;29;20300;-68
2023/04/14 19:54:21;;;;;;;;;;;18.40;53.90;;;;;;6133182;29;20633;-69
2023/04/14 19:57:22;;;;;;;;;;;18.40;53.90;;;;;;6149396;29;19914;-68
2023/04/14 20:00:24;;;;;;;;;;;18.40;54.00;;;;;;6148241;28;20384;-69
2023/04/14 20:03:25;;;;;;;;;;;18.40;54.00;;;;;;6146195;28;19959;-69
2023/04/14 20:06:26;;;;;;;;;;;18.40;53.90;;;;;;6150376;28;19915;-69
2023/04/14 20:09:26;;;;;;;;;;;18.40;53.90;;;;;;6125382;29;19911;-69
2023/04/14 20:12:27;;;;;;;;;;;18.40;54.00;;;;;;6126632;29;19922;-69
2023/04/14 20:15:28;;;;;;;;;;;18.40;54.00;;;;;;6126429;29;19978;-68
2023/04/14 20:18:28;;;;;;;;;;;18.40;53.90;;;;;;6130746;29;19919;-69
2023/04/14 20:21:30;;;;;;;;;;;18.40;53.90;;;;;;6150665;29;20519;-69
2023/04/14 20:24:30;;;;;;;;;;;18.40;53.90;;;;;;6148822;28;20408;-69
2023/04/14 20:27:31;;;;;;;;;;;18.40;53.90;;;;;;6133199;29;19910;-68
2023/04/14 20:30:32;;;;;;;;;;;18.40;54.00;;;;;;6132393;29;19917;-69
2023/04/14 20:33:32;;;;;;;;;;;18.40;54.00;;;;;;6164857;28;19914;-68
2023/04/14 20:36:34;;;;;;;;;;;18.40;54.00;;;;;;6143684;29;20285;-69
2023/04/14 20:39:34;;;;;;;;;;;18.40;53.90;;;;;;6149593;29;19910;-68
2023/04/14 20:42:35;;;;;;;;;;;18.40;54.00;;;;;;6132500;29;19974;-68
2023/04/14 20:45:36;;;;;;;;;;;18.40;53.90;;;;;;6149599;28;20626;-68
2023/04/14 20:48:37;;;;;;;;;;;18.40;53.90;;;;;;6149307;29;20420;-68
2023/04/14 20:51:38;;;;;;;;;;;18.40;53.90;;;;;;6164315;28;19926;-69
2023/04/14 20:54:38;;;;;;;;;;;18.40;53.90;;;;;;6143950;29;19925;-69
2023/04/14 20:57:40;;;;;;;;;;;18.40;53.90;;;;;;6131972;29;20392;-69
2023/04/14 21:00:41;;;;;;;;;;;18.40;54.00;;;;;;6149212;29;19965;-69
2023/04/14 21:03:42;;;;;;;;;;;18.40;53.90;;;;;;6147246;28;19946;-69
2023/04/14 21:06:42;;;;;;;;;;;18.40;53.90;;;;;;6146565;29;19929;-69
2023/04/14 21:09:43;;;;;;;;;;;18.40;53.90;;;;;;6148929;28;20349;-68
2023/04/14 21:12:44;;;;;;;;;;;18.40;53.90;;;;;;6149154;29;19918;-68
2023/04/14 21:15:44;;;;;;;;;;;18.40;53.90;;;;;;6148899;29;20018;-68
2023/04/14 21:18:45;;;;;;;;;;;18.40;53.90;;;;;;6148850;29;19955;-69
2023/04/14 21:21:46;;;;;;;;;;;18.40;54.00;;;;;;6124662;29;19911;-69
2023/04/14 21:24:47;;;;;;;;;;;18.40;53.90;;;;;;6129747;29;19934;-69
2023/04/14 21:27:48;;;;;;;;;;;18.40;53.90;;;;;;6147226;29;19911;-69
2023/04/14 21:30:49;;;;;;;;;;;18.40;53.90;;;;;;6146882;29;19918;-69
2023/04/14 21:33:49;;;;;;;;;;;18.40;53.90;;;;;;6163334;28;19915;-69
2023/04/14 21:36:50;;;;;;;;;;;18.40;53.90;;;;;;6142657;29;19918;-69
2023/04/14 21:39:50;;;;;;;;;;;18.40;53.80;;;;;;6130964;29;19918;-68
2023/04/14 21:42:51;;;;;;;;;;;18.40;53.90;;;;;;6130909;29;19954;-69
2023/04/14 21:45:52;;;;;;;;;;;18.40;53.90;;;;;;6123154;29;19918;-68
2023/04/14 21:48:53;;;;;;;;;;;18.40;53.90;;;;;;6123208;29;20058;-69
2023/04/14 21:51:53;;;;;;;;;;;18.40;54.00;;;;;;6144692;29;19997;-69
2023/04/14 21:54:54;;;;;;;;;;;18.40;53.90;;;;;;6130745;29;20004;-69
2023/04/14 21:57:54;;;;;;;;;;;18.40;53.90;;;;;;6147802;29;19953;-67
2023/04/14 22:00:55;;;;;;;;;;;18.40;53.90;;;;;;6148121;29;19954;-68
2023/04/14 22:03:55;;;;;;;;;;;18.40;53.90;;;;;;6146116;29;20274;-69
2023/04/14 22:06:56;;;;;;;;;;;18.40;53.90;;;;;;6162944;28;19954;-69
2023/04/14 22:09:57;;;;;;;;;;;18.40;53.90;;;;;;6147715;29;19914;-69
2023/04/14 22:12:59;;;;;;;;;;;18.40;53.90;;;;;;6147590;29;20489;-68
2023/04/14 22:15:59;;;;;;;;;;;18.40;53.90;;;;;;6130239;29;19911;-68
2023/04/14 22:19:00;;;;;;;;;;;18.40;53.90;;;;;;6162355;28;19917;-68
2023/04/14 22:22:01;;;;;;;;;;;18.40;53.90;;;;;;6145126;29;19910;-68
2023/04/14 22:25:02;;;;;;;;;;;18.40;53.90;;;;;;6129002;29;19910;-69
2023/04/14 22:28:03;;;;;;;;;;;18.40;53.90;;;;;;6147327;29;19966;-69
2023/04/14 22:31:03;;;;;;;;;;;18.40;53.90;;;;;;6147233;29;19911;-68
2023/04/14 22:34:04;;;;;;;;;;;18.40;53.90;;;;;;6145764;29;19942;-69
2023/04/14 22:37:05;;;;;;;;;;;18.40;53.90;;;;;;6141725;29;19911;-70
2023/04/14 22:40:06;;;;;;;;;;;18.40;53.80;;;;;;6147590;29;19914;-69
2023/04/14 22:43:09;;;;;;;;;;;18.40;53.90;;;;;;6107467;29;19917;-69
2023/04/14 22:46:10;;;;;;;;;;;18.40;53.90;;;;;;6147388;28;19934;-68
2023/04/14 22:49:11;;;;;;;;;;;18.40;53.90;;;;;;6147297;29;19911;-68
2023/04/14 22:52:12;;;;;;;;;;;18.40;53.90;;;;;;6161885;28;19915;-68
2023/04/14 22:55:12;;;;;;;;;;;18.40;53.90;;;;;;6147121;29;19910;-67
2023/04/14 22:58:15;;;;;;;;;;;18.40;54.00;;;;;;6141950;28;19910;-70
2023/04/14 23:01:15;;;;;;;;;;;18.40;53.90;;;;;;6130058;29;20018;-69
2023/04/14 23:04:16;;;;;;;;;;;18.40;53.90;;;;;;6146483;28;19923;-67
2023/04/14 23:07:17;;;;;;;;;;;18.40;53.90;;;;;;6146996;29;19910;-67
2023/04/14 23:10:17;;;;;;;;;;;18.40;53.90;;;;;;6147148;29;20030;-67
2023/04/14 23:13:19;;;;;;;;;;;18.40;53.90;;;;;;6146817;29;19918;-67
2023/04/14 23:16:19;;;;;;;;;;;18.40;53.80;;;;;;6129607;29;19910;-67
2023/04/14 23:19:20;;;;;;;;;;;18.40;53.90;;;;;;6146732;29;20357;-67
2023/04/14 23:22:20;;;;;;;;;;;18.40;53.90;;;;;;6155054;28;20001;-67
2023/04/14 23:25:21;;;;;;;;;;;18.40;54.00;;;;;;6145998;29;20518;-67
2023/04/14 23:28:22;;;;;;;;;;;18.40;53.80;;;;;;6147102;29;19917;-67
2023/04/14 23:31:22;;;;;;;;;;;18.40;54.00;;;;;;6146115;29;19917;-67
2023/04/14 23:34:23;;;;;;;;;;;18.40;53.90;;;;;;6131370;28;19972;-67
2023/04/14 23:37:23;;;;;;;;;;;18.40;54.00;;;;;;6151257;29;19957;-67
2023/04/14 23:40:24;;;;;;;;;;;18.40;53.90;;;;;;6151020;29;19910;-67
2023/04/14 23:43:26;;;;;;;;;;;18.40;53.90;;;;;;6143930;29;19910;-67
2023/04/14 23:46:27;;;;;;;;;;;18.30;53.80;;;;;;6133708;29;19917;-67
2023/04/14 23:49:27;;;;;;;;;;;18.40;54.00;;;;;;6151140;29;19910;-67
2023/04/14 23:52:28;;;;;;;;;;;18.40;54.00;;;;;;6150873;29;19925;-67